MET'MAP v2.0
soon released !

Expected late october,
this new version will be
more efficient, smarter,
and hosted on a brand new
server x3 powerfull...
...and still free !


Not compatible ?
Try the mobile version !

LOG IN : | Subscribe | Disclaimer | Who is Orbifly ? |
ICAO code :

TAF - LFDB Montauban - 26 Feb 2020 03:14 UTC
Data Sources :     NOAA   


- Airport Elevation : 351 ft
- IATA code : XMW
- No reported NOTAMs.


LFDB - Montauban

Latest METAR recorded : 0000/00/00 L :25 TAF LELL 251400Z 2515/2615 VRB03KT CAVOK TX20/2613Z TN06/2606Z PROB30 TEMPO 2520/2601 4000 BR BECMG 2524/2602 30010KT
NO TAF


MET'MAP, your aeronautical weather chart ! - Copyright ORBIFLY December 2007

Programming & Development : Alexandra Zaïnal
Co-Developer : Marc-Olivier Méhu
Technical & hardware support : Manuel Goepfert
Concept & Financing : Baudouin d'Aumeries